Time;durP1;ratioP1;P1;durP2;ratioP2;P2;SDS_P1;SDS_P2;PMS_P1;PMS_P2;Temp;Humidity;BMP_temperature;BMP_pressure;BME280_temperature;BME280_humidity;BME280_pressure;Samples;Min_cycle;Max_cycle;Signal;HPM_P1;HPM_P2
2022/06/07 04:30:15;;;;;;;4.50;3.03;;;15.00;99.90;;;;;;6006343;23;20496;31
2022/06/07 04:32:46;;;;;;;8.13;3.60;;;15.10;99.90;;;;;;4896167;29;20485;-77
2022/06/07 04:35:13;;;;;;;4.43;3.57;;;15.10;99.90;;;;;;4897731;29;20531;-77
2022/06/07 04:37:38;;;;;;;3.60;2.40;;;15.20;99.90;;;;;;4897434;29;21102;-78
2022/06/07 04:40:05;;;;;;;4.33;3.70;;;15.30;99.90;;;;;;4897486;29;20436;-73
2022/06/07 04:42:30;;;;;;;5.90;2.60;;;15.40;99.90;;;;;;4897397;29;20603;-78
2022/06/07 04:44:56;;;;;;;5.10;4.40;;;15.40;99.90;;;;;;4897652;29;20499;-82
2022/06/07 04:47:21;;;;;;;3.40;3.10;;;15.50;99.90;;;;;;4897535;29;20200;-80
2022/06/07 04:49:47;;;;;;;4.13;2.57;;;15.60;99.90;;;;;;4897333;29;20231;-80
2022/06/07 04:52:12;;;;;;;4.27;3.20;;;15.70;99.90;;;;;;4897562;29;20580;-77
2022/06/07 04:54:38;;;;;;;3.87;2.97;;;15.80;99.90;;;;;;4897207;29;20187;-74
2022/06/07 04:57:03;;;;;;;7.90;2.40;;;15.80;99.90;;;;;;4897377;29;20546;-74
2022/06/07 04:59:29;;;;;;;5.87;3.00;;;15.90;99.90;;;;;;4897161;29;20181;-74
2022/06/07 05:02:09;;;;;;;3.30;3.00;;;16.00;99.90;;;;;;4896380;29;20187;-74
2022/06/07 05:04:35;;;;;;;2.60;2.40;;;16.10;99.90;;;;;;4895317;29;20724;-74
2022/06/07 05:07:00;;;;;;;5.83;2.80;;;16.10;99.90;;;;;;4899170;29;20433;-74
2022/06/07 05:09:27;;;;;;;5.50;2.87;;;16.10;99.90;;;;;;4897065;29;20630;-74
2022/06/07 05:11:53;;;;;;;7.57;3.20;;;16.10;99.90;;;;;;4897173;29;20187;-75
2022/06/07 05:14:19;;;;;;;4.93;2.80;;;16.20;99.90;;;;;;4896738;29;20477;-75
2022/06/07 05:16:45;;;;;;;6.07;2.57;;;16.30;99.90;;;;;;4897160;29;20424;-73
2022/06/07 05:19:12;;;;;;;4.63;3.10;;;16.40;99.90;;;;;;4897069;29;20433;-73
2022/06/07 05:21:39;;;;;;;10.40;2.70;;;16.50;99.90;;;;;;4896808;29;20180;-74
2022/06/07 05:24:04;;;;;;;4.13;2.50;;;16.50;99.90;;;;;;4901769;29;20544;-74
2022/06/07 05:26:35;;;;;;;6.50;2.87;;;16.60;99.90;;;;;;4904628;29;20939;-73
2022/06/07 05:29:01;;;;;;;4.50;2.63;;;16.70;99.90;;;;;;4902146;29;20177;-74
2022/06/07 05:31:27;;;;;;;3.97;2.80;;;16.80;99.90;;;;;;4904690;29;20467;-72
2022/06/07 05:33:53;;;;;;;3.53;2.37;;;17.00;99.90;;;;;;4905931;29;20440;-75
2022/06/07 05:36:20;;;;;;;4.57;2.07;;;17.00;99.90;;;;;;4901480;29;20571;-74
2022/06/07 05:38:47;;;;;;;7.27;3.33;;;17.10;99.90;;;;;;4904994;29;20184;-75
2022/06/07 05:41:20;;;;;;;4.50;2.37;;;17.10;99.90;;;;;;4905610;29;20515;-75
2022/06/07 05:43:46;;;;;;;8.30;2.20;;;17.10;99.90;;;;;;4895930;29;20476;-73
2022/06/07 05:46:11;;;;;;;6.20;2.97;;;17.10;99.90;;;;;;4897564;29;20580;-73
2022/06/07 05:48:37;;;;;;;5.90;2.63;;;17.10;99.90;;;;;;4897522;29;20191;-73
2022/06/07 05:51:03;;;;;;;3.60;2.30;;;17.10;99.90;;;;;;4897501;29;20649;-73
2022/06/07 05:53:29;;;;;;;4.53;2.43;;;17.10;99.90;;;;;;4897645;29;20177;-73
2022/06/07 05:55:54;;;;;;;2.20;1.70;;;17.10;99.90;;;;;;4897645;29;20429;-73
2022/06/07 05:58:20;;;;;;;5.40;2.53;;;17.10;99.90;;;;;;4897342;29;20546;-73
2022/06/07 06:00:49;;;;;;;4.33;2.00;;;17.20;99.90;;;;;;4897633;29;20191;-73
2022/06/07 06:03:15;;;;;;;2.40;2.20;;;17.20;99.90;;;;;;4897146;29;20481;-76
2022/06/07 06:05:46;;;;;;;5.57;2.63;;;17.30;99.90;;;;;;4909869;29;20436;-75
2022/06/07 06:11:10;;;;;;;4.37;2.00;;;17.30;99.90;;;;;;4915320;29;20814;-73
2022/06/07 06:13:36;;;;;;;5.30;2.40;;;17.40;99.90;;;;;;4915940;29;20453;-73
2022/06/07 06:16:04;;;;;;;5.73;2.00;;;17.50;99.90;;;;;;4919621;29;20436;-72
2022/06/07 06:18:30;;;;;;;4.80;2.40;;;17.50;99.90;;;;;;4920364;29;20446;-73
2022/06/07 06:20:56;;;;;;;3.97;2.30;;;17.50;99.90;;;;;;4919656;29;20506;-73
2022/06/07 06:23:21;;;;;;;3.70;2.37;;;17.60;99.90;;;;;;4919590;29;20208;-73
2022/06/07 06:25:47;;;;;;;3.30;2.00;;;17.70;99.90;;;;;;4919776;29;20183;-73
2022/06/07 06:28:12;;;;;;;3.47;2.50;;;17.70;99.90;;;;;;4919641;29;20179;-73
2022/06/07 06:30:41;;;;;;;8.30;2.10;;;17.70;99.90;;;;;;4919407;29;20255;-72
2022/06/07 06:33:07;;;;;;;3.23;2.30;;;17.70;99.90;;;;;;4919014;29;20250;-73
2022/06/07 06:35:32;;;;;;;3.00;2.07;;;17.70;99.90;;;;;;4918526;29;20423;-73
2022/06/07 06:37:58;;;;;;;9.40;2.60;;;17.60;99.90;;;;;;4919392;29;20176;-72
2022/06/07 06:40:24;;;;;;;3.47;2.03;;;17.70;99.90;;;;;;4919364;29;20215;-73
2022/06/07 06:42:49;;;;;;;11.77;2.53;;;17.70;99.90;;;;;;4919049;29;20219;-73
2022/06/07 06:45:15;;;;;;;2.90;2.10;;;17.70;99.90;;;;;;4919297;29;20175;-72
2022/06/07 06:47:41;;;;;;;5.63;1.97;;;17.70;99.90;;;;;;4919236;29;20183;-72
2022/06/07 06:50:07;;;;;;;2.40;2.07;;;17.80;99.90;;;;;;4919205;29;20172;-72
2022/06/07 06:52:32;;;;;;;7.57;2.20;;;17.90;99.90;;;;;;4919040;29;20854;-72
2022/06/07 06:54:58;;;;;;;1.80;1.70;;;18.00;99.90;;;;;;4918245;29;20203;-72
2022/06/07 06:57:23;;;;;;;8.10;2.53;;;18.00;99.90;;;;;;4918011;29;20207;-72
2022/06/07 06:59:49;;;;;;;5.10;2.33;;;18.00;99.90;;;;;;4918207;29;20644;-72
2022/06/07 07:02:14;;;;;;;2.30;2.10;;;18.00;99.90;;;;;;4917876;29;20241;-72
2022/06/07 07:04:40;;;;;;;2.23;2.03;;;17.90;99.90;;;;;;4918035;29;20192;-72
2022/06/07 07:07:05;;;;;;;7.17;2.70;;;18.00;99.90;;;;;;4917901;29;20178;-71
2022/06/07 07:09:31;;;;;;;6.23;1.60;;;18.00;99.90;;;;;;4916105;29;20198;-74
2022/06/07 07:11:57;;;;;;;4.23;1.80;;;18.20;99.90;;;;;;4905737;29;20240;-74
2022/06/07 07:14:22;;;;;;;4.20;1.83;;;18.30;99.90;;;;;;4907204;29;20191;-76
2022/06/07 07:16:52;;;;;;;13.03;4.37;;;18.30;99.90;;;;;;4909393;29;20207;-75
2022/06/07 07:19:18;;;;;;;3.63;2.23;;;18.30;99.90;;;;;;4907013;29;20238;-71
2022/06/07 07:21:48;;;;;;;5.63;2.00;;;18.40;99.90;;;;;;4903092;29;20461;-75
2022/06/07 07:24:19;;;;;;;3.60;2.17;;;18.50;99.90;;;;;;4908407;29;20460;-73
2022/06/07 07:26:46;;;;;;;2.53;1.90;;;18.70;99.90;;;;;;4904016;29;20439;-72
2022/06/07 07:29:13;;;;;;;5.00;2.87;;;18.70;99.90;;;;;;4908319;29;20439;-72
2022/06/07 07:31:39;;;;;;;3.23;1.97;;;18.70;99.90;;;;;;4908262;29;20479;-71
2022/06/07 07:34:08;;;;;;;2.70;1.77;;;18.80;99.90;;;;;;4906579;29;20433;-73
2022/06/07 07:36:36;;;;;;;5.13;1.57;;;18.80;99.90;;;;;;4906323;29;20610;-73
2022/06/07 07:39:02;;;;;;;5.07;1.90;;;18.80;99.90;;;;;;4908532;29;20447;-72
2022/06/07 07:41:31;;;;;;;4.53;1.67;;;19.00;99.90;;;;;;4906008;29;20531;-75
2022/06/07 07:43:59;;;;;;;2.10;1.90;;;18.90;99.90;;;;;;4902274;29;20815;-71
2022/06/07 07:46:29;;;;;;;3.73;1.83;;;19.00;99.90;;;;;;4905938;29;20999;-72
2022/06/07 07:48:54;;;;;;;2.03;1.40;;;19.10;99.90;;;;;;4907866;29;20514;-72
2022/06/07 07:51:35;;;;;;;2.63;1.50;;;19.20;99.90;;;;;;4907514;29;20524;-72
2022/06/07 07:54:03;;;;;;;2.90;1.83;;;19.20;99.90;;;;;;4917280;29;20472;-73
2022/06/07 07:56:30;;;;;;;3.40;1.70;;;19.30;99.90;;;;;;4917109;29;20424;-73
2022/06/07 07:58:58;;;;;;;3.13;1.83;;;19.30;99.90;;;;;;4917079;29;20461;-73
2022/06/07 08:01:26;;;;;;;3.87;1.70;;;19.30;99.90;;;;;;4916734;29;21065;-74
2022/06/07 08:03:54;;;;;;;2.07;1.67;;;19.30;99.90;;;;;;4916630;29;20476;-74
2022/06/07 08:06:22;;;;;;;2.13;1.67;;;19.30;99.90;;;;;;4916732;29;20431;-73
2022/06/07 08:08:50;;;;;;;2.20;1.70;;;19.40;99.90;;;;;;4900811;29;20885;-72
2022/06/07 08:11:17;;;;;;;1.63;1.50;;;19.40;99.90;;;;;;4905464;29;21005;-72
2022/06/07 08:13:42;;;;;;;3.67;1.70;;;19.50;99.90;;;;;;4912270;29;20431;-71
2022/06/07 08:16:09;;;;;;;5.50;2.10;;;19.50;99.90;;;;;;4908875;29;20452;-73
2022/06/07 08:18:35;;;;;;;2.40;1.77;;;19.50;99.90;;;;;;4897927;29;20185;-73
2022/06/07 08:21:05;;;;;;;3.93;1.67;;;19.50;99.90;;;;;;4904968;29;20432;-71
2022/06/07 08:23:32;;;;;;;3.50;1.77;;;19.60;99.90;;;;;;4905525;29;20483;-71
2022/06/07 08:25:59;;;;;;;6.00;1.97;;;19.60;99.90;;;;;;4901936;29;20515;-71
2022/06/07 08:28:25;;;;;;;4.37;2.30;;;19.70;99.90;;;;;;4897525;29;20481;-72
2022/06/07 08:30:51;;;;;;;12.17;3.83;;;19.80;99.90;;;;;;4897417;29;20956;-73
2022/06/07 08:38:52;;;;;;;2.63;1.73;;;20.00;99.90;;;;;;4897709;29;20456;-71
2022/06/07 08:41:21;;;;;;;2.67;2.07;;;20.00;99.90;;;;;;4897279;29;20424;-71
2022/06/07 08:43:47;;;;;;;2.20;1.70;;;20.10;99.90;;;;;;4897446;29;20216;-72
2022/06/07 08:46:15;;;;;;;2.50;1.87;;;20.20;99.90;;;;;;4897501;29;20577;-72
2022/06/07 08:48:42;;;;;;;4.43;1.70;;;20.20;99.90;;;;;;4897274;29;20263;-72
2022/06/07 08:51:25;;;;;;;3.57;1.63;;;20.30;99.90;;;;;;4897188;29;20439;-72
2022/06/07 08:53:55;;;;;;;3.90;1.93;;;20.40;99.90;;;;;;4897321;29;20538;-72
2022/06/07 08:56:26;;;;;;;3.83;1.83;;;20.40;99.90;;;;;;4897180;29;20421;-71
2022/06/07 08:58:54;;;;;;;2.13;1.50;;;20.50;99.90;;;;;;4897205;29;20988;-72
2022/06/07 09:01:47;;;;;;;2.80;1.70;;;20.40;99.90;;;;;;4897164;29;20436;-71
2022/06/07 09:04:27;;;;;;;3.13;1.87;;;20.40;99.90;;;;;;4897168;29;20581;-72
2022/06/07 09:06:56;;;;;;;3.63;1.70;;;20.40;99.90;;;;;;4897249;29;20475;-71
2022/06/07 09:12:09;;;;;;;4.30;1.70;;;20.40;99.90;;;;;;4896910;29;20855;-72
2022/06/07 09:12:21;;;;;;;2.80;1.90;;;20.40;99.90;;;;;;4897002;29;20452;-72
2022/06/07 09:14:54;;;;;;;2.60;2.07;;;20.40;99.90;;;;;;4897174;29;20916;-71
2022/06/07 09:17:28;;;;;;;2.97;1.70;;;20.50;99.90;;;;;;4896969;29;20953;-72
2022/06/07 09:19:54;;;;;;;3.10;1.87;;;20.60;99.90;;;;;;4897057;29;20432;-72
2022/06/07 09:22:25;;;;;;;2.60;1.80;;;20.60;99.90;;;;;;4896833;29;20472;-71
2022/06/07 09:25:01;;;;;;;7.00;1.73;;;20.60;99.90;;;;;;4897096;29;20429;-72
2022/06/07 09:27:31;;;;;;;3.40;2.20;;;20.60;99.90;;;;;;4896786;29;20436;-72
2022/06/07 09:30:17;;;;;;;4.73;1.47;;;20.50;99.90;;;;;;4896920;29;20953;-71
2022/06/07 09:32:45;;;;;;;2.27;1.50;;;20.40;99.90;;;;;;4896784;29;20847;-71
2022/06/07 09:35:20;;;;;;;2.63;2.13;;;20.50;99.90;;;;;;4896919;29;20792;-76
2022/06/07 09:37:48;;;;;;;2.07;1.97;;;20.50;99.90;;;;;;4896904;29;20894;-74
2022/06/07 09:40:26;;;;;;;4.20;1.73;;;20.40;99.90;;;;;;4896845;29;20433;-74
2022/06/07 09:43:16;;;;;;;14.87;3.67;;;20.40;99.90;;;;;;4896765;29;20535;-73
2022/06/07 09:45:44;;;;;;;1.57;1.47;;;20.50;99.90;;;;;;4896639;29;20951;-74
2022/06/07 09:48:37;;;;;;;2.63;1.90;;;20.60;99.90;;;;;;4896909;29;20480;-73
2022/06/07 09:51:16;;;;;;;3.30;1.60;;;20.50;99.90;;;;;;4900091;29;20496;-75
2022/06/07 09:53:45;;;;;;;2.33;1.53;;;20.50;99.90;;;;;;4900384;29;20947;-74
2022/06/07 09:56:20;;;;;;;1.80;1.40;;;20.50;99.90;;;;;;4900352;29;20865;-75
2022/06/07 09:58:59;;;;;;;2.60;1.70;;;20.50;99.90;;;;;;4900283;29;20465;-75
2022/06/07 10:01:56;;;;;;;6.37;2.10;;;20.40;99.90;;;;;;4899976;29;20440;-75
2022/06/07 10:04:43;;;;;;;3.73;1.80;;;20.40;99.90;;;;;;4899449;29;20527;-75
2022/06/07 10:07:39;;;;;;;2.27;1.67;;;20.30;99.90;;;;;;4900241;29;20425;-75
2022/06/07 10:10:19;;;;;;;4.27;1.80;;;20.20;99.90;;;;;;4899292;29;20972;-75
2022/06/07 10:12:51;;;;;;;7.07;2.00;;;20.20;99.90;;;;;;4900081;29;20792;-75
2022/06/07 10:15:19;;;;;;;2.00;1.87;;;20.40;99.90;;;;;;4899813;29;20515;-75
2022/06/07 10:17:54;;;;;;;3.53;2.43;;;20.40;99.90;;;;;;4899993;29;20439;-75
2022/06/07 10:20:38;;;;;;;3.23;2.03;;;20.40;99.90;;;;;;4899975;29;20841;-75
2022/06/07 10:23:05;;;;;;;5.90;1.80;;;20.40;99.90;;;;;;4898576;29;20476;-75
2022/06/07 10:25:50;;;;;;;5.00;1.80;;;20.50;99.90;;;;;;4899862;29;20467;-75
2022/06/07 10:28:39;;;;;;;7.83;1.87;;;20.60;99.90;;;;;;4899673;29;20507;-75
2022/06/07 10:31:24;;;;;;;3.07;1.90;;;20.60;99.90;;;;;;4899519;29;20583;-75
2022/06/07 10:34:00;;;;;;;3.20;2.10;;;20.70;99.90;;;;;;4899823;29;20428;-75
2022/06/07 10:36:47;;;;;;;3.37;1.80;;;20.80;99.90;;;;;;4899472;29;20425;-75
2022/06/07 10:39:35;;;;;;;3.80;1.90;;;20.70;99.90;;;;;;4899587;29;20417;-75
2022/06/07 10:42:43;;;;;;;3.97;1.93;;;20.80;99.90;;;;;;4899628;29;20861;-75
2022/06/07 10:45:25;;;;;;;6.30;2.10;;;20.80;99.90;;;;;;4899620;29;20432;-75
2022/06/07 10:48:18;;;;;;;3.20;1.73;;;20.90;99.90;;;;;;4899588;29;20508;-75
2022/06/07 10:50:56;;;;;;;2.67;2.13;;;20.90;99.90;;;;;;4899329;29;20519;-75
2022/06/07 10:53:29;;;;;;;4.13;1.97;;;20.80;99.90;;;;;;4899182;29;20920;-74
2022/06/07 10:56:13;;;;;;;4.70;2.40;;;20.80;99.90;;;;;;4899156;29;20484;-73
2022/06/07 10:58:40;;;;;;;2.73;1.70;;;20.90;99.90;;;;;;4901529;29;20439;-73
2022/06/07 11:01:16;;;;;;;3.63;1.97;;;20.90;99.90;;;;;;4907251;29;20938;-73
2022/06/07 11:09:19;;;;;;;3.20;2.10;;;20.90;99.90;;;;;;4906100;29;20839;-74
2022/06/07 11:09:58;;;;;;;3.70;2.07;;;21.00;99.90;;;;;;4905817;29;20439;-75
2022/06/07 11:12:33;;;;;;;4.43;1.60;;;21.00;99.90;;;;;;4905644;29;20535;-75
2022/06/07 11:15:16;;;;;;;5.00;1.83;;;21.00;99.90;;;;;;4907200;29;20432;-74
2022/06/07 11:17:56;;;;;;;2.60;1.77;;;21.00;99.90;;;;;;4905169;29;20852;-75
2022/06/07 11:20:28;;;;;;;5.20;2.10;;;21.00;99.90;;;;;;4904920;29;20444;-75
2022/06/07 11:23:13;;;;;;;8.43;1.73;;;21.30;99.90;;;;;;4907046;29;20482;-75
2022/06/07 11:25:43;;;;;;;5.67;2.33;;;21.40;99.90;;;;;;4908752;29;20466;-75
2022/06/07 11:28:16;;;;;;;1.80;1.57;;;21.50;99.90;;;;;;4908125;29;20878;-75
2022/06/07 11:30:48;;;;;;;1.90;1.80;;;21.50;99.90;;;;;;4904846;29;20461;-76
2022/06/07 11:33:39;;;;;;;1.43;1.33;;;21.50;99.90;;;;;;4906836;29;20487;-74
2022/06/07 11:36:08;;;;;;;4.80;1.90;;;21.60;99.90;;;;;;4905403;29;20499;-73
2022/06/07 11:38:55;;;;;;;4.20;2.50;;;21.60;99.90;;;;;;4906489;29;20470;-73
2022/06/07 11:41:39;;;;;;;3.10;2.20;;;21.80;99.90;;;;;;4906502;29;20425;-75
2022/06/07 11:44:10;;;;;;;2.20;1.80;;;21.80;99.90;;;;;;4905102;29;20561;-72
2022/06/07 11:46:41;;;;;;;3.20;1.60;;;21.80;99.90;;;;;;4906477;29;20425;-72
2022/06/07 11:49:19;;;;;;;3.57;2.03;;;21.90;99.90;;;;;;4907454;29;20847;-73
2022/06/07 11:52:00;;;;;;;2.43;1.67;;;21.80;99.90;;;;;;4905327;29;20923;-79
2022/06/07 11:54:43;;;;;;;1.40;1.30;;;21.90;99.90;;;;;;4914662;29;20427;-80
2022/06/07 11:57:41;;;;;;;5.40;1.40;;;21.90;99.90;;;;;;4917046;29;20432;-81
2022/06/07 12:00:19;;;;;;;3.27;1.70;;;21.90;99.90;;;;;;4906182;29;20475;-81
2022/06/07 12:02:54;;;;;;;2.80;1.47;;;21.80;99.90;;;;;;4898169;29;20506;-81
2022/06/07 12:05:42;;;;;;;2.40;1.73;;;21.80;99.90;;;;;;4905077;29;20464;-82
2022/06/07 12:08:17;;;;;;;4.20;2.00;;;21.70;99.90;;;;;;4899098;29;20808;-81
2022/06/07 12:11:01;;;;;;;2.40;1.60;;;21.70;99.90;;;;;;4917016;29;20453;-80
2022/06/07 12:13:51;;;;;;;3.37;1.40;;;21.50;99.90;;;;;;4916497;29;20436;-79
2022/06/07 12:16:34;;;;;;;2.60;1.90;;;21.40;99.90;;;;;;4911875;29;20443;-84
2022/06/07 12:19:03;;;;;;;2.30;1.60;;;21.50;99.90;;;;;;4901812;29;20215;-84
2022/06/07 12:21:42;;;;;;;2.67;1.60;;;21.70;99.90;;;;;;4897719;29;20440;-85
2022/06/07 12:24:15;;;;;;;2.70;2.30;;;21.60;99.90;;;;;;4897867;29;20851;-84
2022/06/07 12:26:42;;;;;;;2.50;1.83;;;21.60;99.90;;;;;;4897730;29;20576;-80
2022/06/07 12:29:07;;;;;;;3.47;1.83;;;21.50;99.90;;;;;;4898134;29;20437;-84
2022/06/07 12:31:44;;;;;;;4.70;1.60;;;21.50;99.90;;;;;;4898454;29;20594;-88
2022/06/07 12:34:17;;;;;;;4.40;1.63;;;21.60;99.90;;;;;;4903679;29;20579;-79
2022/06/07 12:36:46;;;;;;;3.87;2.33;;;21.50;99.90;;;;;;4895258;29;20437;-86
2022/06/07 12:39:14;;;;;;;5.63;1.77;;;21.60;99.90;;;;;;4893742;29;20437;-85
2022/06/07 12:41:53;;;;;;;2.70;1.47;;;21.60;99.90;;;;;;4902182;29;20806;-88
2022/06/07 12:44:32;;;;;;;3.20;2.00;;;21.60;99.90;;;;;;4897509;29;20808;-89
2022/06/07 12:47:00;;;;;;;2.87;1.43;;;21.70;99.90;;;;;;4897926;29;20784;-88
2022/06/07 12:49:42;;;;;;;3.10;1.90;;;21.70;99.90;;;;;;4897277;29;20539;-87
2022/06/07 12:52:14;;;;;;;2.63;1.77;;;21.60;99.90;;;;;;4897341;29;20424;-88
2022/06/07 12:54:46;;;;;;;4.17;1.80;;;21.30;99.90;;;;;;4897469;29;20432;-86
2022/06/07 12:57:17;;;;;;;1.83;1.73;;;21.30;99.90;;;;;;4897214;29;20425;-87
2022/06/07 12:59:52;;;;;;;2.83;1.73;;;21.40;99.90;;;;;;4897969;29;20436;-91
2022/06/07 13:02:40;;;;;;;2.57;1.90;;;21.40;99.90;;;;;;4897189;29;20843;-89
2022/06/07 13:05:10;;;;;;;3.33;1.80;;;21.30;99.90;;;;;;4897038;29;20424;-84
2022/06/07 13:07:49;;;;;;;7.70;3.80;;;21.30;99.90;;;;;;4897084;29;20433;-83
2022/06/07 13:10:21;;;;;;;2.17;1.90;;;21.30;99.90;;;;;;4898976;29;20499;-88
2022/06/07 13:12:50;;;;;;;2.40;1.53;;;21.20;99.90;;;;;;4907574;29;20503;-90
2022/06/07 13:15:26;;;;;;;4.47;2.00;;;21.10;99.90;;;;;;4900943;29;20928;-75
2022/06/07 13:17:56;;;;;;;2.07;1.60;;;21.00;99.90;;;;;;4912169;29;20507;-76
2022/06/07 13:20:36;;;;;;;3.60;1.70;;;20.90;99.90;;;;;;4903581;29;20439;-77
2022/06/07 13:23:32;;;;;;;4.80;1.90;;;20.70;99.90;;;;;;4902741;29;20468;-76
2022/06/07 13:26:15;;;;;;;2.40;1.63;;;20.70;99.90;;;;;;4900212;29;20638;-78
2022/06/07 13:28:42;;;;;;;6.83;2.17;;;20.60;99.90;;;;;;4900849;29;20904;-78
2022/06/07 13:31:51;;;;;;;3.30;1.50;;;20.40;99.90;;;;;;4899862;29;20952;-77
2022/06/07 13:34:32;;;;;;;2.00;1.50;;;20.40;99.90;;;;;;4891709;29;20810;-78
2022/06/07 13:37:08;;;;;;;3.60;1.70;;;20.40;99.90;;;;;;4900614;29;20475;-80
2022/06/07 13:39:40;;;;;;;2.80;2.30;;;20.40;99.90;;;;;;4904003;29;20519;-79
2022/06/07 13:42:16;;;;;;;2.20;2.00;;;20.30;99.90;;;;;;4911904;29;20796;-83
2022/06/07 13:44:53;;;;;;;4.00;1.97;;;20.20;99.90;;;;;;4912411;29;20554;-79
2022/06/07 13:47:22;;;;;;;4.33;2.20;;;20.20;99.90;;;;;;4903729;29;20428;-78
2022/06/07 13:53:26;;;;;;;3.10;2.13;;;20.10;99.90;;;;;;4916478;29;20434;-77
2022/06/07 13:55:58;;;;;;;2.83;2.57;;;20.10;99.90;;;;;;4907433;29;20431;-78
2022/06/07 13:58:26;;;;;;;3.70;2.87;;;20.00;99.90;;;;;;4913063;29;20459;-75
2022/06/07 14:01:01;;;;;;;3.40;2.90;;;19.90;99.90;;;;;;4909328;29;20540;-76
2022/06/07 14:03:37;;;;;;;5.60;3.67;;;19.80;99.90;;;;;;4904075;29;20596;-76
2022/06/07 14:06:05;;;;;;;3.67;3.13;;;19.70;99.90;;;;;;4905605;29;20528;-76
2022/06/07 14:08:30;;;;;;;6.40;3.13;;;19.70;99.90;;;;;;4908002;29;20947;-76
2022/06/07 14:10:56;;;;;;;3.60;3.27;;;19.50;99.90;;;;;;4908811;29;20424;-76
2022/06/07 14:13:22;;;;;;;5.90;4.37;;;19.40;99.90;;;;;;4908563;29;20188;-76
2022/06/07 14:15:50;;;;;;;7.43;3.40;;;19.30;99.90;;;;;;4910391;29;20176;-76
2022/06/07 14:18:21;;;;;;;6.03;4.00;;;19.30;99.90;;;;;;4910372;29;20791;-74
2022/06/07 14:20:48;;;;;;;5.63;3.20;;;19.30;99.90;;;;;;4908383;29;20432;-74
2022/06/07 14:23:15;;;;;;;7.03;4.20;;;19.30;99.90;;;;;;4907503;29;20921;-74
2022/06/07 14:25:40;;;;;;;7.87;4.37;;;19.30;99.90;;;;;;4908496;29;20535;-74
2022/06/07 14:28:18;;;;;;;9.03;4.37;;;19.20;99.90;;;;;;4907661;29;20591;-73
2022/06/07 14:30:47;;;;;;;4.87;4.47;;;19.20;99.90;;;;;;4905569;29;20216;-74
2022/06/07 14:33:13;;;;;;;5.47;3.93;;;19.20;99.90;;;;;;4907544;29;20895;-75
2022/06/07 14:35:38;;;;;;;5.00;3.60;;;19.20;99.90;;;;;;4901757;29;20440;-76
2022/06/07 14:38:09;;;;;;;8.60;4.27;;;19.00;99.90;;;;;;4899058;29;20436;-73
2022/06/07 14:40:41;;;;;;;4.60;3.97;;;19.00;99.90;;;;;;4899848;29;20176;-74
2022/06/07 14:43:08;;;;;;;5.57;4.40;;;19.00;99.90;;;;;;4907145;29;20574;-74
2022/06/07 14:45:47;;;;;;;7.27;4.50;;;18.90;99.90;;;;;;4908644;29;20428;-73
2022/06/07 14:48:40;;;;;;;5.03;4.57;;;18.90;99.90;;;;;;4905187;29;20528;-73
2022/06/07 14:51:30;;;;;;;4.73;4.33;;;18.90;99.90;;;;;;4902128;29;20441;-73
2022/06/07 14:53:58;;;;;;;5.50;4.80;;;18.90;99.90;;;;;;4899185;29;20508;-72
2022/06/07 14:56:30;;;;;;;10.10;5.90;;;18.80;99.90;;;;;;4904115;29;20794;-72
2022/06/07 14:58:56;;;;;;;7.30;5.50;;;18.80;99.90;;;;;;4902254;29;20424;-72
2022/06/07 15:01:29;;;;;;;5.20;4.53;;;18.80;99.90;;;;;;4918258;29;20954;-72
2022/06/07 15:03:55;;;;;;;5.50;5.00;;;18.90;99.90;;;;;;4917892;29;20713;-72
2022/06/07 15:06:41;;;;;;;7.80;4.40;;;18.90;99.90;;;;;;4918067;29;20455;-72
2022/06/07 15:09:17;;;;;;;10.47;5.40;;;18.80;99.90;;;;;;4917959;29;20666;-72
2022/06/07 15:11:43;;;;;;;5.77;4.40;;;18.80;99.90;;;;;;4917908;29;20474;-72
2022/06/07 15:14:09;;;;;;;5.50;3.90;;;18.80;99.90;;;;;;4918278;29;20420;-72
2022/06/07 15:16:37;;;;;;;3.23;2.93;;;18.80;99.90;;;;;;4917806;29;20436;-71
2022/06/07 15:19:06;;;;;;;2.90;2.60;;;18.80;99.90;;;;;;4917648;29;20431;-72
2022/06/07 15:21:33;;;;;;;2.80;2.47;;;18.80;99.90;;;;;;4917553;29;20953;-72
2022/06/07 15:23:58;;;;;;;6.90;2.53;;;18.70;99.90;;;;;;4917715;29;20570;-72
2022/06/07 15:26:26;;;;;;;2.53;2.33;;;18.60;99.90;;;;;;4917588;29;20862;-71
2022/06/07 15:28:52;;;;;;;2.60;2.40;;;18.60;99.90;;;;;;4917471;29;20176;-72
2022/06/07 15:31:21;;;;;;;2.50;2.30;;;18.60;99.90;;;;;;4917329;29;20535;-72
2022/06/07 15:33:51;;;;;;;2.83;2.30;;;18.60;99.90;;;;;;4917515;29;20435;-72
2022/06/07 15:36:16;;;;;;;3.60;2.60;;;18.50;99.90;;;;;;4917515;29;20432;-72
2022/06/07 15:38:45;;;;;;;3.53;2.40;;;18.50;99.90;;;;;;4917404;29;20519;-70
2022/06/07 15:43:55;;;;;;;3.47;3.07;;;18.50;99.90;;;;;;4917325;29;20515;-71
2022/06/07 15:46:21;;;;;;;3.73;2.73;;;18.50;99.90;;;;;;4917164;29;20492;-72
2022/06/07 15:48:47;;;;;;;6.27;2.80;;;18.60;99.90;;;;;;4916831;29;20474;-71
2022/06/07 15:51:12;;;;;;;2.60;2.40;;;18.50;99.90;;;;;;4917241;29;20184;-71
2022/06/07 15:53:39;;;;;;;2.80;2.40;;;18.50;99.90;;;;;;4917360;29;20180;-80
2022/06/07 15:56:07;;;;;;;2.13;1.93;;;18.50;99.90;;;;;;4916667;29;20183;-82
2022/06/07 16:01:17;;;;;;;5.27;2.50;;;18.60;99.90;;;;;;4918121;29;20439;-83
2022/06/07 16:03:43;;;;;;;3.37;2.03;;;18.80;99.90;;;;;;4916591;29;20480;-83
2022/06/07 16:06:09;;;;;;;4.60;2.40;;;18.80;99.90;;;;;;4917707;29;20191;-83
2022/06/07 16:08:35;;;;;;;1.87;1.70;;;18.80;99.90;;;;;;4917623;29;20435;-81
2022/06/07 16:11:02;;;;;;;1.60;1.50;;;19.00;99.90;;;;;;4917810;29;20442;-83
2022/06/07 16:13:27;;;;;;;2.90;1.80;;;19.00;99.90;;;;;;4916383;29;20790;-83
2022/06/07 16:15:55;;;;;;;1.70;1.60;;;19.10;99.90;;;;;;4916161;29;20443;-84
2022/06/07 16:18:22;;;;;;;1.87;1.67;;;19.20;99.90;;;;;;4917369;29;20208;-83
2022/06/07 16:20:49;;;;;;;1.80;1.50;;;19.30;99.90;;;;;;4917558;29;20832;-83
2022/06/07 16:23:15;;;;;;;1.80;1.63;;;19.40;99.90;;;;;;4917148;29;20475;-83
2022/06/07 16:25:42;;;;;;;1.50;1.33;;;19.40;99.90;;;;;;4917268;29;20431;-84
2022/06/07 16:33:39;;;;;;;2.80;1.70;;;19.60;99.90;;;;;;4917568;29;20926;-84
2022/06/07 16:36:11;;;;;;;1.83;1.33;;;19.80;99.90;;;;;;4917315;29;20535;-84
2022/06/07 16:38:43;;;;;;;1.60;1.30;;;19.80;99.90;;;;;;4917449;29;20455;-84
2022/06/07 16:41:09;;;;;;;2.47;1.50;;;19.80;99.90;;;;;;4917237;29;20878;-83
2022/06/07 16:46:20;;;;;;;1.33;1.23;;;19.80;99.90;;;;;;4916599;29;20435;-74
2022/06/07 16:48:47;;;;;;;1.60;1.30;;;19.90;99.90;;;;;;4916660;29;20444;-77
2022/06/07 16:51:12;;;;;;;1.90;1.67;;;19.80;99.90;;;;;;4916616;29;20424;-79
2022/06/07 16:53:39;;;;;;;1.83;1.73;;;19.90;99.90;;;;;;4916890;29;20856;-79
2022/06/07 16:56:05;;;;;;;2.10;1.90;;;20.00;99.90;;;;;;4916238;29;20172;-76
2022/06/07 16:58:31;;;;;;;1.73;1.30;;;20.10;99.90;;;;;;4914859;29;20432;-79
2022/06/07 17:00:57;;;;;;;2.80;2.10;;;20.10;99.90;;;;;;4916043;29;20795;-76
2022/06/07 17:03:23;;;;;;;2.97;2.20;;;20.20;99.90;;;;;;4915723;29;20483;-75
2022/06/07 17:05:49;;;;;;;1.73;1.47;;;20.40;99.90;;;;;;4916015;29;20175;-76
2022/06/07 17:08:18;;;;;;;2.13;2.03;;;20.40;99.90;;;;;;4916047;29;20786;-78
2022/06/07 17:10:44;;;;;;;2.03;1.93;;;20.50;99.90;;;;;;4916228;29;20432;-79
2022/06/07 17:13:10;;;;;;;2.37;2.17;;;20.60;99.90;;;;;;4916075;29;20515;-80
2022/06/07 17:15:37;;;;;;;2.77;2.20;;;20.60;99.90;;;;;;4915872;29;20194;-82
2022/06/07 17:18:04;;;;;;;3.10;1.97;;;20.40;99.90;;;;;;4915813;29;20519;-80
2022/06/07 17:20:30;;;;;;;1.93;1.60;;;20.40;99.90;;;;;;4915891;29;20435;-81
2022/06/07 17:22:56;;;;;;;2.00;1.80;;;20.30;99.90;;;;;;4915944;29;20472;-80
2022/06/07 17:25:24;;;;;;;4.90;2.20;;;20.20;99.90;;;;;;4915891;29;20442;-78
2022/06/07 17:27:50;;;;;;;5.00;1.77;;;20.20;99.90;;;;;;4915848;29;20438;-77
2022/06/07 17:30:15;;;;;;;4.00;1.83;;;20.30;99.90;;;;;;4915651;29;20935;-78
2022/06/07 17:32:41;;;;;;;3.00;2.07;;;20.30;99.90;;;;;;4915500;29;20258;-74
2022/06/07 17:35:10;;;;;;;3.37;2.10;;;20.30;99.90;;;;;;4915886;29;20619;-74
2022/06/07 17:37:36;;;;;;;1.80;1.50;;;20.40;99.90;;;;;;4914891;29;20328;-74
2022/06/07 17:40:08;;;;;;;1.80;1.70;;;20.40;99.90;;;;;;4913146;29;20499;-74
2022/06/07 17:42:34;;;;;;;2.27;1.77;;;20.40;99.90;;;;;;4914897;29;20827;-75
2022/06/07 17:44:59;;;;;;;3.10;1.83;;;20.40;99.90;;;;;;4915045;29;20436;-81
2022/06/07 17:47:25;;;;;;;4.27;2.60;;;20.40;99.90;;;;;;4915659;29;20537;-80
2022/06/07 17:49:51;;;;;;;2.20;2.00;;;20.40;99.90;;;;;;4915742;29;20216;-78
2022/06/07 17:52:17;;;;;;;2.43;1.63;;;20.40;99.90;;;;;;4915722;29;20203;-76
2022/06/07 17:54:44;;;;;;;2.30;1.60;;;20.40;99.90;;;;;;4915563;29;20655;-76
2022/06/07 17:57:09;;;;;;;2.23;1.50;;;20.40;99.90;;;;;;4915597;29;20186;-82
2022/06/07 17:59:35;;;;;;;3.60;1.60;;;20.30;99.90;;;;;;4915662;29;20517;-78
2022/06/07 18:02:02;;;;;;;5.27;2.00;;;20.40;99.90;;;;;;4915554;29;20601;-77
2022/06/07 18:04:28;;;;;;;1.87;1.77;;;20.40;99.90;;;;;;4915516;29;20480;-77